sensor_id;sensor_type;location;lat;lon;timestamp;P1;durP1;ratioP1;P2;durP2;ratioP2
7929;SDS011;4010;42.698;23.124;2024-02-26T00:02:21;19.63;;;11.63;;
7929;SDS011;4010;42.698;23.124;2024-02-26T00:04:48;23.70;;;12.77;;
7929;SDS011;4010;42.698;23.124;2024-02-26T00:07:15;18.23;;;13.17;;
7929;SDS011;4010;42.698;23.124;2024-02-26T00:09:41;16.60;;;11.87;;
7929;SDS011;4010;42.698;23.124;2024-02-26T00:12:08;18.83;;;10.83;;
7929;SDS011;4010;42.698;23.124;2024-02-26T00:14:35;20.10;;;11.37;;
7929;SDS011;4010;42.698;23.124;2024-02-26T00:17:02;19.87;;;12.40;;
7929;SDS011;4010;42.698;23.124;2024-02-26T00:19:30;33.63;;;16.33;;
7929;SDS011;4010;42.698;23.124;2024-02-26T00:21:57;24.57;;;13.87;;
7929;SDS011;4010;42.698;23.124;2024-02-26T00:24:23;16.87;;;11.27;;
7929;SDS011;4010;42.698;23.124;2024-02-26T00:26:51;19.20;;;11.27;;
7929;SDS011;4010;42.698;23.124;2024-02-26T00:29:19;25.23;;;12.57;;
7929;SDS011;4010;42.698;23.124;2024-02-26T00:31:46;18.83;;;11.83;;
7929;SDS011;4010;42.698;23.124;2024-02-26T00:34:13;16.53;;;10.70;;
7929;SDS011;4010;42.698;23.124;2024-02-26T00:36:41;19.87;;;12.33;;
7929;SDS011;4010;42.698;23.124;2024-02-26T00:39:08;17.83;;;10.87;;
7929;SDS011;4010;42.698;23.124;2024-02-26T00:41:37;15.50;;;10.30;;
7929;SDS011;4010;42.698;23.124;2024-02-26T00:44:05;13.40;;;8.57;;
7929;SDS011;4010;42.698;23.124;2024-02-26T00:46:31;14.47;;;9.37;;
7929;SDS011;4010;42.698;23.124;2024-02-26T00:48:58;15.67;;;9.37;;
7929;SDS011;4010;42.698;23.124;2024-02-26T00:51:25;12.93;;;9.37;;
7929;SDS011;4010;42.698;23.124;2024-02-26T00:53:53;12.67;;;9.10;;
7929;SDS011;4010;42.698;23.124;2024-02-26T00:56:21;10.67;;;8.10;;
7929;SDS011;4010;42.698;23.124;2024-02-26T00:58:47;14.30;;;8.90;;
7929;SDS011;4010;42.698;23.124;2024-02-26T01:01:14;11.03;;;8.63;;
7929;SDS011;4010;42.698;23.124;2024-02-26T01:03:41;11.67;;;8.43;;
7929;SDS011;4010;42.698;23.124;2024-02-26T01:06:08;11.57;;;8.50;;
7929;SDS011;4010;42.698;23.124;2024-02-26T01:08:34;13.13;;;8.23;;
7929;SDS011;4010;42.698;23.124;2024-02-26T01:11:04;12.40;;;9.23;;
7929;SDS011;4010;42.698;23.124;2024-02-26T01:13:30;13.43;;;8.63;;
7929;SDS011;4010;42.698;23.124;2024-02-26T01:15:57;12.30;;;8.93;;
7929;SDS011;4010;42.698;23.124;2024-02-26T01:18:25;16.00;;;10.97;;
7929;SDS011;4010;42.698;23.124;2024-02-26T01:20:52;12.20;;;7.90;;
7929;SDS011;4010;42.698;23.124;2024-02-26T01:23:19;12.67;;;9.87;;
7929;SDS011;4010;42.698;23.124;2024-02-26T01:25:46;13.90;;;8.67;;
7929;SDS011;4010;42.698;23.124;2024-02-26T01:28:16;12.53;;;7.83;;
7929;SDS011;4010;42.698;23.124;2024-02-26T01:30:43;12.70;;;8.47;;
7929;SDS011;4010;42.698;23.124;2024-02-26T01:33:09;13.67;;;8.87;;
7929;SDS011;4010;42.698;23.124;2024-02-26T01:35:36;12.60;;;9.50;;
7929;SDS011;4010;42.698;23.124;2024-02-26T01:38:05;15.17;;;9.53;;
7929;SDS011;4010;42.698;23.124;2024-02-26T01:40:32;16.63;;;11.40;;
7929;SDS011;4010;42.698;23.124;2024-02-26T01:42:59;19.27;;;11.87;;
7929;SDS011;4010;42.698;23.124;2024-02-26T01:45:27;15.53;;;12.07;;
7929;SDS011;4010;42.698;23.124;2024-02-26T01:47:54;20.23;;;13.60;;
7929;SDS011;4010;42.698;23.124;2024-02-26T01:50:21;10.73;;;8.90;;
7929;SDS011;4010;42.698;23.124;2024-02-26T01:52:49;17.20;;;9.97;;
7929;SDS011;4010;42.698;23.124;2024-02-26T01:55:17;15.37;;;11.23;;
7929;SDS011;4010;42.698;23.124;2024-02-26T01:57:45;14.17;;;9.80;;
7929;SDS011;4010;42.698;23.124;2024-02-26T02:00:14;10.63;;;8.07;;
7929;SDS011;4010;42.698;23.124;2024-02-26T02:02:44;16.23;;;10.20;;
7929;SDS011;4010;42.698;23.124;2024-02-26T02:05:12;14.13;;;10.50;;
7929;SDS011;4010;42.698;23.124;2024-02-26T02:07:40;15.10;;;9.63;;
7929;SDS011;4010;42.698;23.124;2024-02-26T02:10:07;13.47;;;9.53;;
7929;SDS011;4010;42.698;23.124;2024-02-26T02:12:34;14.10;;;9.90;;
7929;SDS011;4010;42.698;23.124;2024-02-26T02:15:04;18.40;;;10.93;;
7929;SDS011;4010;42.698;23.124;2024-02-26T02:17:31;15.37;;;10.90;;
7929;SDS011;4010;42.698;23.124;2024-02-26T02:19:59;14.77;;;10.33;;
7929;SDS011;4010;42.698;23.124;2024-02-26T02:22:28;16.17;;;10.13;;
7929;SDS011;4010;42.698;23.124;2024-02-26T02:24:54;10.67;;;8.00;;
7929;SDS011;4010;42.698;23.124;2024-02-26T02:27:21;14.67;;;9.33;;
7929;SDS011;4010;42.698;23.124;2024-02-26T02:29:48;13.47;;;9.87;;
7929;SDS011;4010;42.698;23.124;2024-02-26T02:32:15;21.13;;;12.43;;
7929;SDS011;4010;42.698;23.124;2024-02-26T02:34:43;17.53;;;11.33;;
7929;SDS011;4010;42.698;23.124;2024-02-26T02:37:10;14.73;;;8.87;;
7929;SDS011;4010;42.698;23.124;2024-02-26T02:39:38;12.43;;;8.77;;
7929;SDS011;4010;42.698;23.124;2024-02-26T02:42:08;12.70;;;9.07;;
7929;SDS011;4010;42.698;23.124;2024-02-26T02:44:35;14.60;;;8.80;;
7929;SDS011;4010;42.698;23.124;2024-02-26T02:47:01;16.97;;;10.20;;
7929;SDS011;4010;42.698;23.124;2024-02-26T02:49:28;13.70;;;10.10;;
7929;SDS011;4010;42.698;23.124;2024-02-26T02:51:55;17.80;;;12.13;;
7929;SDS011;4010;42.698;23.124;2024-02-26T02:54:22;16.00;;;10.83;;
7929;SDS011;4010;42.698;23.124;2024-02-26T02:56:50;13.47;;;9.67;;
7929;SDS011;4010;42.698;23.124;2024-02-26T02:59:17;12.77;;;9.37;;
7929;SDS011;4010;42.698;23.124;2024-02-26T03:01:44;15.43;;;10.60;;
7929;SDS011;4010;42.698;23.124;2024-02-26T03:04:11;14.13;;;10.67;;
7929;SDS011;4010;42.698;23.124;2024-02-26T03:06:37;14.60;;;10.63;;
7929;SDS011;4010;42.698;23.124;2024-02-26T03:09:04;19.37;;;10.30;;
7929;SDS011;4010;42.698;23.124;2024-02-26T03:11:31;14.30;;;10.60;;
7929;SDS011;4010;42.698;23.124;2024-02-26T03:13:59;16.13;;;10.70;;
7929;SDS011;4010;42.698;23.124;2024-02-26T03:16:26;13.87;;;9.53;;
7929;SDS011;4010;42.698;23.124;2024-02-26T03:18:53;12.43;;;9.10;;
7929;SDS011;4010;42.698;23.124;2024-02-26T03:21:19;13.37;;;8.80;;
7929;SDS011;4010;42.698;23.124;2024-02-26T03:23:46;13.87;;;8.53;;
7929;SDS011;4010;42.698;23.124;2024-02-26T03:26:13;12.27;;;8.90;;
7929;SDS011;4010;42.698;23.124;2024-02-26T03:28:40;11.20;;;8.40;;
7929;SDS011;4010;42.698;23.124;2024-02-26T03:31:08;10.83;;;7.73;;
7929;SDS011;4010;42.698;23.124;2024-02-26T03:33:35;10.37;;;7.67;;
7929;SDS011;4010;42.698;23.124;2024-02-26T03:36:02;11.77;;;8.50;;
7929;SDS011;4010;42.698;23.124;2024-02-26T03:38:29;10.30;;;7.57;;
7929;SDS011;4010;42.698;23.124;2024-02-26T03:40:56;22.77;;;18.03;;
7929;SDS011;4010;42.698;23.124;2024-02-26T03:43:23;14.77;;;11.00;;
7929;SDS011;4010;42.698;23.124;2024-02-26T03:45:50;14.50;;;10.27;;
7929;SDS011;4010;42.698;23.124;2024-02-26T03:48:18;15.00;;;9.40;;
7929;SDS011;4010;42.698;23.124;2024-02-26T03:50:44;14.37;;;10.20;;
7929;SDS011;4010;42.698;23.124;2024-02-26T03:53:11;11.13;;;8.80;;
7929;SDS011;4010;42.698;23.124;2024-02-26T03:55:38;9.73;;;7.97;;
7929;SDS011;4010;42.698;23.124;2024-02-26T03:58:06;13.13;;;8.53;;
7929;SDS011;4010;42.698;23.124;2024-02-26T04:00:33;13.70;;;10.23;;
7929;SDS011;4010;42.698;23.124;2024-02-26T04:03:00;16.93;;;10.10;;
7929;SDS011;4010;42.698;23.124;2024-02-26T04:05:28;13.23;;;9.27;;
7929;SDS011;4010;42.698;23.124;2024-02-26T04:07:55;15.60;;;9.90;;
7929;SDS011;4010;42.698;23.124;2024-02-26T04:10:21;13.10;;;9.13;;
7929;SDS011;4010;42.698;23.124;2024-02-26T04:12:48;13.10;;;9.90;;
7929;SDS011;4010;42.698;23.124;2024-02-26T04:15:15;10.67;;;7.63;;
7929;SDS011;4010;42.698;23.124;2024-02-26T04:17:42;15.57;;;8.43;;
7929;SDS011;4010;42.698;23.124;2024-02-26T04:20:13;12.73;;;9.00;;
7929;SDS011;4010;42.698;23.124;2024-02-26T04:22:42;12.63;;;9.53;;
7929;SDS011;4010;42.698;23.124;2024-02-26T04:25:09;16.33;;;9.33;;
7929;SDS011;4010;42.698;23.124;2024-02-26T04:27:35;12.30;;;9.67;;
7929;SDS011;4010;42.698;23.124;2024-02-26T04:30:04;12.83;;;9.43;;
7929;SDS011;4010;42.698;23.124;2024-02-26T04:32:31;11.10;;;7.80;;
7929;SDS011;4010;42.698;23.124;2024-02-26T04:34:58;14.03;;;7.93;;
7929;SDS011;4010;42.698;23.124;2024-02-26T04:37:24;12.57;;;8.07;;
7929;SDS011;4010;42.698;23.124;2024-02-26T04:39:57;12.87;;;9.50;;
7929;SDS011;4010;42.698;23.124;2024-02-26T04:42:24;15.23;;;10.93;;
7929;SDS011;4010;42.698;23.124;2024-02-26T04:44:51;17.30;;;11.23;;
7929;SDS011;4010;42.698;23.124;2024-02-26T04:47:17;13.43;;;10.37;;
7929;SDS011;4010;42.698;23.124;2024-02-26T04:49:44;23.37;;;11.00;;
7929;SDS011;4010;42.698;23.124;2024-02-26T04:52:11;14.13;;;10.47;;
7929;SDS011;4010;42.698;23.124;2024-02-26T04:54:38;19.50;;;12.03;;
7929;SDS011;4010;42.698;23.124;2024-02-26T04:57:06;13.00;;;8.60;;
7929;SDS011;4010;42.698;23.124;2024-02-26T04:59:33;11.80;;;8.30;;
7929;SDS011;4010;42.698;23.124;2024-02-26T05:01:59;14.30;;;10.43;;
7929;SDS011;4010;42.698;23.124;2024-02-26T05:04:26;15.67;;;10.77;;
7929;SDS011;4010;42.698;23.124;2024-02-26T05:06:53;15.67;;;11.73;;
7929;SDS011;4010;42.698;23.124;2024-02-26T05:09:19;16.57;;;12.57;;
7929;SDS011;4010;42.698;23.124;2024-02-26T05:11:47;13.23;;;9.23;;
7929;SDS011;4010;42.698;23.124;2024-02-26T05:14:15;12.77;;;9.43;;
7929;SDS011;4010;42.698;23.124;2024-02-26T05:16:41;13.50;;;10.47;;
7929;SDS011;4010;42.698;23.124;2024-02-26T05:19:08;17.37;;;11.80;;
7929;SDS011;4010;42.698;23.124;2024-02-26T05:21:35;18.90;;;12.83;;
7929;SDS011;4010;42.698;23.124;2024-02-26T05:24:01;16.43;;;11.57;;
7929;SDS011;4010;42.698;23.124;2024-02-26T05:26:28;15.17;;;10.17;;
7929;SDS011;4010;42.698;23.124;2024-02-26T05:28:55;12.30;;;9.27;;
7929;SDS011;4010;42.698;23.124;2024-02-26T05:31:25;13.33;;;9.70;;
7929;SDS011;4010;42.698;23.124;2024-02-26T05:33:53;14.70;;;9.87;;
7929;SDS011;4010;42.698;23.124;2024-02-26T05:36:21;16.23;;;11.23;;
7929;SDS011;4010;42.698;23.124;2024-02-26T05:38:48;16.00;;;11.00;;
7929;SDS011;4010;42.698;23.124;2024-02-26T05:41:15;13.47;;;9.70;;
7929;SDS011;4010;42.698;23.124;2024-02-26T05:43:45;13.93;;;10.17;;
7929;SDS011;4010;42.698;23.124;2024-02-26T05:46:12;14.90;;;10.57;;
7929;SDS011;4010;42.698;23.124;2024-02-26T05:48:40;16.00;;;10.83;;
7929;SDS011;4010;42.698;23.124;2024-02-26T05:51:06;16.73;;;11.70;;
7929;SDS011;4010;42.698;23.124;2024-02-26T05:53:33;20.00;;;13.43;;
7929;SDS011;4010;42.698;23.124;2024-02-26T05:56:00;14.33;;;9.53;;
7929;SDS011;4010;42.698;23.124;2024-02-26T05:58:27;19.57;;;14.07;;
7929;SDS011;4010;42.698;23.124;2024-02-26T06:00:53;16.80;;;11.70;;
7929;SDS011;4010;42.698;23.124;2024-02-26T06:03:20;13.10;;;9.43;;
7929;SDS011;4010;42.698;23.124;2024-02-26T06:05:48;13.70;;;9.20;;
7929;SDS011;4010;42.698;23.124;2024-02-26T06:08:15;12.67;;;9.27;;
7929;SDS011;4010;42.698;23.124;2024-02-26T06:10:42;12.80;;;10.13;;
7929;SDS011;4010;42.698;23.124;2024-02-26T06:13:08;15.73;;;11.17;;
7929;SDS011;4010;42.698;23.124;2024-02-26T06:15:35;13.43;;;9.60;;
7929;SDS011;4010;42.698;23.124;2024-02-26T06:18:02;15.40;;;11.33;;
7929;SDS011;4010;42.698;23.124;2024-02-26T06:20:29;13.03;;;10.33;;
7929;SDS011;4010;42.698;23.124;2024-02-26T06:22:57;13.17;;;10.63;;
7929;SDS011;4010;42.698;23.124;2024-02-26T06:25:23;15.53;;;11.30;;
7929;SDS011;4010;42.698;23.124;2024-02-26T06:27:51;15.17;;;11.70;;
7929;SDS011;4010;42.698;23.124;2024-02-26T06:30:17;13.97;;;9.87;;
7929;SDS011;4010;42.698;23.124;2024-02-26T06:32:44;14.77;;;10.47;;
7929;SDS011;4010;42.698;23.124;2024-02-26T06:35:11;13.17;;;10.83;;
7929;SDS011;4010;42.698;23.124;2024-02-26T06:37:37;17.27;;;12.57;;
7929;SDS011;4010;42.698;23.124;2024-02-26T06:40:06;20.73;;;13.07;;
7929;SDS011;4010;42.698;23.124;2024-02-26T06:42:34;18.60;;;12.77;;
7929;SDS011;4010;42.698;23.124;2024-02-26T06:45:00;18.00;;;13.37;;
7929;SDS011;4010;42.698;23.124;2024-02-26T06:47:29;16.70;;;13.00;;
7929;SDS011;4010;42.698;23.124;2024-02-26T06:49:55;27.20;;;18.13;;
7929;SDS011;4010;42.698;23.124;2024-02-26T06:52:23;28.47;;;17.83;;
7929;SDS011;4010;42.698;23.124;2024-02-26T06:54:50;23.43;;;16.73;;
7929;SDS011;4010;42.698;23.124;2024-02-26T06:57:19;21.63;;;16.67;;
7929;SDS011;4010;42.698;23.124;2024-02-26T06:59:46;21.83;;;16.57;;
7929;SDS011;4010;42.698;23.124;2024-02-26T07:02:13;25.50;;;17.37;;
7929;SDS011;4010;42.698;23.124;2024-02-26T07:04:41;22.73;;;16.73;;
7929;SDS011;4010;42.698;23.124;2024-02-26T07:07:08;23.20;;;16.77;;
7929;SDS011;4010;42.698;23.124;2024-02-26T07:09:35;21.43;;;15.77;;
7929;SDS011;4010;42.698;23.124;2024-02-26T07:12:02;22.23;;;15.27;;
7929;SDS011;4010;42.698;23.124;2024-02-26T07:14:30;21.57;;;16.43;;
7929;SDS011;4010;42.698;23.124;2024-02-26T07:16:57;22.03;;;16.87;;
7929;SDS011;4010;42.698;23.124;2024-02-26T07:19:24;25.53;;;16.80;;
7929;SDS011;4010;42.698;23.124;2024-02-26T07:21:51;19.67;;;16.00;;
7929;SDS011;4010;42.698;23.124;2024-02-26T07:24:17;22.90;;;17.93;;
7929;SDS011;4010;42.698;23.124;2024-02-26T07:26:44;22.77;;;15.87;;
7929;SDS011;4010;42.698;23.124;2024-02-26T07:29:11;19.60;;;16.33;;
7929;SDS011;4010;42.698;23.124;2024-02-26T07:31:39;22.83;;;17.03;;
7929;SDS011;4010;42.698;23.124;2024-02-26T07:34:06;20.47;;;16.03;;
7929;SDS011;4010;42.698;23.124;2024-02-26T07:36:33;18.50;;;14.80;;
7929;SDS011;4010;42.698;23.124;2024-02-26T07:39:00;21.27;;;15.60;;
7929;SDS011;4010;42.698;23.124;2024-02-26T07:41:26;20.23;;;14.30;;
7929;SDS011;4010;42.698;23.124;2024-02-26T07:43:53;16.83;;;14.00;;
7929;SDS011;4010;42.698;23.124;2024-02-26T07:46:20;19.43;;;13.67;;
7929;SDS011;4010;42.698;23.124;2024-02-26T07:48:48;17.63;;;13.27;;
7929;SDS011;4010;42.698;23.124;2024-02-26T07:51:15;17.13;;;13.73;;
7929;SDS011;4010;42.698;23.124;2024-02-26T07:53:42;18.03;;;13.10;;
7929;SDS011;4010;42.698;23.124;2024-02-26T07:56:09;17.33;;;13.17;;
7929;SDS011;4010;42.698;23.124;2024-02-26T07:58:36;18.87;;;14.00;;
7929;SDS011;4010;42.698;23.124;2024-02-26T08:01:02;17.27;;;12.77;;
7929;SDS011;4010;42.698;23.124;2024-02-26T08:03:29;17.50;;;13.70;;
7929;SDS011;4010;42.698;23.124;2024-02-26T08:05:57;18.57;;;13.50;;
7929;SDS011;4010;42.698;23.124;2024-02-26T08:08:24;20.30;;;14.30;;
7929;SDS011;4010;42.698;23.124;2024-02-26T08:10:51;16.27;;;12.63;;
7929;SDS011;4010;42.698;23.124;2024-02-26T08:13:17;18.50;;;12.70;;
7929;SDS011;4010;42.698;23.124;2024-02-26T08:15:44;18.17;;;13.33;;
7929;SDS011;4010;42.698;23.124;2024-02-26T08:18:11;15.73;;;12.90;;
7929;SDS011;4010;42.698;23.124;2024-02-26T08:20:37;15.40;;;12.00;;
7929;SDS011;4010;42.698;23.124;2024-02-26T08:23:06;16.20;;;12.70;;
7929;SDS011;4010;42.698;23.124;2024-02-26T08:25:32;15.23;;;12.00;;
7929;SDS011;4010;42.698;23.124;2024-02-26T08:27:59;13.67;;;11.70;;
7929;SDS011;4010;42.698;23.124;2024-02-26T08:30:26;16.47;;;12.07;;
7929;SDS011;4010;42.698;23.124;2024-02-26T08:32:52;16.00;;;12.17;;
7929;SDS011;4010;42.698;23.124;2024-02-26T08:35:19;16.90;;;12.00;;
7929;SDS011;4010;42.698;23.124;2024-02-26T08:37:46;15.33;;;12.57;;
7929;SDS011;4010;42.698;23.124;2024-02-26T08:40:15;16.50;;;12.57;;
7929;SDS011;4010;42.698;23.124;2024-02-26T08:42:42;15.03;;;11.97;;
7929;SDS011;4010;42.698;23.124;2024-02-26T08:45:09;18.83;;;12.97;;
7929;SDS011;4010;42.698;23.124;2024-02-26T08:47:36;17.43;;;12.37;;
7929;SDS011;4010;42.698;23.124;2024-02-26T08:50:03;19.17;;;12.77;;
7929;SDS011;4010;42.698;23.124;2024-02-26T08:52:30;15.20;;;11.57;;
7929;SDS011;4010;42.698;23.124;2024-02-26T08:54:57;13.87;;;11.80;;
7929;SDS011;4010;42.698;23.124;2024-02-26T08:57:25;14.60;;;11.53;;
7929;SDS011;4010;42.698;23.124;2024-02-26T08:59:52;15.37;;;12.40;;
7929;SDS011;4010;42.698;23.124;2024-02-26T09:02:18;14.30;;;11.00;;
7929;SDS011;4010;42.698;23.124;2024-02-26T09:04:45;13.33;;;11.10;;
7929;SDS011;4010;42.698;23.124;2024-02-26T09:07:12;18.70;;;11.70;;
7929;SDS011;4010;42.698;23.124;2024-02-26T09:09:39;14.83;;;10.70;;
7929;SDS011;4010;42.698;23.124;2024-02-26T09:12:07;16.83;;;12.80;;
7929;SDS011;4010;42.698;23.124;2024-02-26T09:14:35;15.37;;;12.00;;
7929;SDS011;4010;42.698;23.124;2024-02-26T09:17:02;13.00;;;10.77;;
7929;SDS011;4010;42.698;23.124;2024-02-26T09:19:31;15.37;;;12.20;;
7929;SDS011;4010;42.698;23.124;2024-02-26T09:21:57;13.90;;;11.13;;
7929;SDS011;4010;42.698;23.124;2024-02-26T09:24:24;13.83;;;10.80;;
7929;SDS011;4010;42.698;23.124;2024-02-26T09:26:51;11.47;;;10.27;;
7929;SDS011;4010;42.698;23.124;2024-02-26T09:29:18;13.97;;;10.87;;
7929;SDS011;4010;42.698;23.124;2024-02-26T09:31:46;15.20;;;11.00;;
7929;SDS011;4010;42.698;23.124;2024-02-26T09:34:13;11.40;;;10.20;;
7929;SDS011;4010;42.698;23.124;2024-02-26T09:36:40;14.00;;;11.27;;
7929;SDS011;4010;42.698;23.124;2024-02-26T09:39:06;18.43;;;10.97;;
7929;SDS011;4010;42.698;23.124;2024-02-26T09:41:36;12.67;;;10.53;;
7929;SDS011;4010;42.698;23.124;2024-02-26T09:44:04;15.53;;;11.77;;
7929;SDS011;4010;42.698;23.124;2024-02-26T09:46:31;14.60;;;11.80;;
7929;SDS011;4010;42.698;23.124;2024-02-26T09:48:59;16.03;;;10.97;;
7929;SDS011;4010;42.698;23.124;2024-02-26T09:51:26;15.20;;;11.97;;
7929;SDS011;4010;42.698;23.124;2024-02-26T09:53:53;15.53;;;12.30;;
7929;SDS011;4010;42.698;23.124;2024-02-26T09:56:22;15.90;;;12.17;;
7929;SDS011;4010;42.698;23.124;2024-02-26T09:58:50;14.47;;;12.60;;
7929;SDS011;4010;42.698;23.124;2024-02-26T10:01:20;14.87;;;12.37;;
7929;SDS011;4010;42.698;23.124;2024-02-26T10:03:51;15.80;;;12.67;;
7929;SDS011;4010;42.698;23.124;2024-02-26T10:06:22;17.23;;;12.87;;
7929;SDS011;4010;42.698;23.124;2024-02-26T10:08:50;17.73;;;13.63;;
7929;SDS011;4010;42.698;23.124;2024-02-26T10:11:18;18.13;;;12.43;;
7929;SDS011;4010;42.698;23.124;2024-02-26T10:13:46;16.90;;;13.03;;
7929;SDS011;4010;42.698;23.124;2024-02-26T10:16:12;18.53;;;12.97;;
7929;SDS011;4010;42.698;23.124;2024-02-26T10:18:46;16.60;;;12.60;;
7929;SDS011;4010;42.698;23.124;2024-02-26T10:21:15;16.00;;;13.00;;
7929;SDS011;4010;42.698;23.124;2024-02-26T10:23:44;15.53;;;12.93;;
7929;SDS011;4010;42.698;23.124;2024-02-26T10:26:12;15.63;;;12.20;;
7929;SDS011;4010;42.698;23.124;2024-02-26T10:28:41;17.20;;;11.83;;
7929;SDS011;4010;42.698;23.124;2024-02-26T10:31:08;13.87;;;11.80;;
7929;SDS011;4010;42.698;23.124;2024-02-26T10:33:36;15.13;;;12.40;;
7929;SDS011;4010;42.698;23.124;2024-02-26T10:36:04;19.63;;;12.83;;
7929;SDS011;4010;42.698;23.124;2024-02-26T10:38:32;15.77;;;12.77;;
7929;SDS011;4010;42.698;23.124;2024-02-26T10:41:00;15.23;;;11.60;;
7929;SDS011;4010;42.698;23.124;2024-02-26T10:43:28;15.20;;;12.07;;
7929;SDS011;4010;42.698;23.124;2024-02-26T10:45:55;14.20;;;11.30;;
7929;SDS011;4010;42.698;23.124;2024-02-26T10:48:23;16.53;;;12.80;;
7929;SDS011;4010;42.698;23.124;2024-02-26T10:50:50;15.73;;;12.83;;
7929;SDS011;4010;42.698;23.124;2024-02-26T10:53:19;22.27;;;14.17;;
7929;SDS011;4010;42.698;23.124;2024-02-26T10:55:48;14.60;;;11.63;;
7929;SDS011;4010;42.698;23.124;2024-02-26T10:58:20;17.93;;;12.23;;
7929;SDS011;4010;42.698;23.124;2024-02-26T11:00:50;18.47;;;12.10;;
7929;SDS011;4010;42.698;23.124;2024-02-26T11:03:17;14.33;;;11.97;;
7929;SDS011;4010;42.698;23.124;2024-02-26T11:05:46;14.83;;;11.93;;
7929;SDS011;4010;42.698;23.124;2024-02-26T11:08:14;15.63;;;10.87;;
7929;SDS011;4010;42.698;23.124;2024-02-26T11:10:42;23.00;;;15.07;;
7929;SDS011;4010;42.698;23.124;2024-02-26T11:13:09;12.87;;;10.47;;
7929;SDS011;4010;42.698;23.124;2024-02-26T11:15:40;25.03;;;14.47;;
7929;SDS011;4010;42.698;23.124;2024-02-26T11:18:08;15.30;;;11.27;;
7929;SDS011;4010;42.698;23.124;2024-02-26T11:20:35;11.07;;;9.40;;
7929;SDS011;4010;42.698;23.124;2024-02-26T11:23:05;10.40;;;9.10;;
7929;SDS011;4010;42.698;23.124;2024-02-26T11:25:33;11.57;;;9.83;;
7929;SDS011;4010;42.698;23.124;2024-02-26T11:28:01;13.70;;;10.50;;
7929;SDS011;4010;42.698;23.124;2024-02-26T11:30:31;10.67;;;8.20;;
7929;SDS011;4010;42.698;23.124;2024-02-26T11:33:05;8.53;;;7.10;;
7929;SDS011;4010;42.698;23.124;2024-02-26T11:35:34;5.93;;;4.60;;
7929;SDS011;4010;42.698;23.124;2024-02-26T11:38:03;5.00;;;4.53;;
7929;SDS011;4010;42.698;23.124;2024-02-26T11:40:31;5.70;;;4.20;;
7929;SDS011;4010;42.698;23.124;2024-02-26T11:42:59;5.53;;;4.00;;
7929;SDS011;4010;42.698;23.124;2024-02-26T11:45:47;5.07;;;4.27;;
7929;SDS011;4010;42.698;23.124;2024-02-26T11:48:21;4.30;;;3.73;;
7929;SDS011;4010;42.698;23.124;2024-02-26T11:50:49;4.17;;;3.73;;
7929;SDS011;4010;42.698;23.124;2024-02-26T11:53:25;4.13;;;3.73;;
7929;SDS011;4010;42.698;23.124;2024-02-26T11:58:39;5.73;;;4.20;;
7929;SDS011;4010;42.698;23.124;2024-02-26T12:01:06;4.53;;;4.00;;
7929;SDS011;4010;42.698;23.124;2024-02-26T12:03:55;6.00;;;4.30;;
7929;SDS011;4010;42.698;23.124;2024-02-26T12:06:23;5.30;;;3.93;;
7929;SDS011;4010;42.698;23.124;2024-02-26T12:08:52;5.50;;;4.23;;
7929;SDS011;4010;42.698;23.124;2024-02-26T12:11:19;5.40;;;3.67;;
7929;SDS011;4010;42.698;23.124;2024-02-26T12:13:46;6.63;;;4.27;;
7929;SDS011;4010;42.698;23.124;2024-02-26T12:16:21;5.17;;;4.03;;
7929;SDS011;4010;42.698;23.124;2024-02-26T12:19:02;4.97;;;4.00;;
7929;SDS011;4010;42.698;23.124;2024-02-26T12:21:32;5.23;;;4.53;;
7929;SDS011;4010;42.698;23.124;2024-02-26T12:24:06;4.50;;;4.10;;
7929;SDS011;4010;42.698;23.124;2024-02-26T12:26:36;6.83;;;3.93;;
7929;SDS011;4010;42.698;23.124;2024-02-26T12:29:02;4.87;;;4.07;;
7929;SDS011;4010;42.698;23.124;2024-02-26T12:31:29;4.63;;;4.10;;
7929;SDS011;4010;42.698;23.124;2024-02-26T12:33:57;4.87;;;4.30;;
7929;SDS011;4010;42.698;23.124;2024-02-26T12:36:25;5.23;;;4.70;;
7929;SDS011;4010;42.698;23.124;2024-02-26T12:38:53;4.20;;;3.80;;
7929;SDS011;4010;42.698;23.124;2024-02-26T12:41:20;12.87;;;8.00;;
7929;SDS011;4010;42.698;23.124;2024-02-26T12:43:47;5.73;;;4.17;;
7929;SDS011;4010;42.698;23.124;2024-02-26T12:46:14;5.23;;;4.00;;
7929;SDS011;4010;42.698;23.124;2024-02-26T12:48:42;5.67;;;4.60;;
7929;SDS011;4010;42.698;23.124;2024-02-26T12:51:10;5.30;;;4.17;;
7929;SDS011;4010;42.698;23.124;2024-02-26T12:53:39;8.67;;;5.70;;
7929;SDS011;4010;42.698;23.124;2024-02-26T12:56:06;7.07;;;5.60;;
7929;SDS011;4010;42.698;23.124;2024-02-26T12:58:35;11.30;;;7.90;;
7929;SDS011;4010;42.698;23.124;2024-02-26T13:01:05;7.27;;;5.03;;
7929;SDS011;4010;42.698;23.124;2024-02-26T13:03:32;6.03;;;4.10;;
7929;SDS011;4010;42.698;23.124;2024-02-26T13:06:02;4.87;;;4.37;;
7929;SDS011;4010;42.698;23.124;2024-02-26T13:08:31;4.87;;;3.83;;
7929;SDS011;4010;42.698;23.124;2024-02-26T13:10:59;4.57;;;4.10;;
7929;SDS011;4010;42.698;23.124;2024-02-26T13:13:26;4.00;;;3.70;;
7929;SDS011;4010;42.698;23.124;2024-02-26T13:16:00;4.70;;;3.70;;
7929;SDS011;4010;42.698;23.124;2024-02-26T13:18:28;5.97;;;3.80;;
7929;SDS011;4010;42.698;23.124;2024-02-26T13:21:05;4.87;;;4.10;;
7929;SDS011;4010;42.698;23.124;2024-02-26T13:23:33;5.20;;;3.47;;
7929;SDS011;4010;42.698;23.124;2024-02-26T13:26:01;4.20;;;3.80;;
7929;SDS011;4010;42.698;23.124;2024-02-26T13:28:28;4.07;;;3.50;;
7929;SDS011;4010;42.698;23.124;2024-02-26T13:30:55;4.63;;;3.70;;
7929;SDS011;4010;42.698;23.124;2024-02-26T13:33:23;4.53;;;3.67;;
7929;SDS011;4010;42.698;23.124;2024-02-26T13:35:51;6.40;;;4.10;;
7929;SDS011;4010;42.698;23.124;2024-02-26T13:38:18;4.80;;;3.63;;
7929;SDS011;4010;42.698;23.124;2024-02-26T13:40:45;5.27;;;3.73;;
7929;SDS011;4010;42.698;23.124;2024-02-26T13:43:13;3.90;;;3.40;;
7929;SDS011;4010;42.698;23.124;2024-02-26T13:45:40;4.03;;;3.63;;
7929;SDS011;4010;42.698;23.124;2024-02-26T13:48:08;4.63;;;3.33;;
7929;SDS011;4010;42.698;23.124;2024-02-26T13:50:36;4.13;;;3.47;;
7929;SDS011;4010;42.698;23.124;2024-02-26T13:53:03;5.33;;;3.40;;
7929;SDS011;4010;42.698;23.124;2024-02-26T13:55:30;4.07;;;3.50;;
7929;SDS011;4010;42.698;23.124;2024-02-26T13:57:57;5.43;;;3.37;;
7929;SDS011;4010;42.698;23.124;2024-02-26T14:00:27;5.87;;;3.50;;
7929;SDS011;4010;42.698;23.124;2024-02-26T14:02:56;4.20;;;3.23;;
7929;SDS011;4010;42.698;23.124;2024-02-26T14:05:23;5.37;;;3.60;;
7929;SDS011;4010;42.698;23.124;2024-02-26T14:07:50;5.47;;;3.60;;
7929;SDS011;4010;42.698;23.124;2024-02-26T14:10:17;4.10;;;3.70;;
7929;SDS011;4010;42.698;23.124;2024-02-26T14:12:44;3.87;;;3.30;;
7929;SDS011;4010;42.698;23.124;2024-02-26T14:15:11;4.13;;;3.07;;
7929;SDS011;4010;42.698;23.124;2024-02-26T14:17:39;3.37;;;3.07;;
7929;SDS011;4010;42.698;23.124;2024-02-26T14:20:08;4.40;;;3.50;;
7929;SDS011;4010;42.698;23.124;2024-02-26T14:22:35;3.50;;;3.13;;
7929;SDS011;4010;42.698;23.124;2024-02-26T14:25:02;4.73;;;3.20;;
7929;SDS011;4010;42.698;23.124;2024-02-26T14:27:29;6.47;;;3.57;;
7929;SDS011;4010;42.698;23.124;2024-02-26T14:29:56;3.00;;;2.67;;
7929;SDS011;4010;42.698;23.124;2024-02-26T14:32:22;3.40;;;3.10;;
7929;SDS011;4010;42.698;23.124;2024-02-26T14:34:50;4.83;;;3.30;;
7929;SDS011;4010;42.698;23.124;2024-02-26T14:37:17;4.40;;;3.13;;
7929;SDS011;4010;42.698;23.124;2024-02-26T14:39:44;3.83;;;3.27;;
7929;SDS011;4010;42.698;23.124;2024-02-26T14:42:12;3.80;;;3.07;;
7929;SDS011;4010;42.698;23.124;2024-02-26T14:44:42;4.37;;;2.90;;
7929;SDS011;4010;42.698;23.124;2024-02-26T14:47:09;4.27;;;3.07;;
7929;SDS011;4010;42.698;23.124;2024-02-26T14:49:35;4.50;;;2.97;;